KVYS Airport (Illinois Valley Rgnl-Walter A Duncan Field) Information

FAA: VYS - ICAO: KVYS

KVYS Airport Location

State Illinois
County La Salle
City Peru
KVYS Airport is 1 miles east of Peru, IL.
Latitude 41-21-00.5000N
Longitude 089-09-10.6000W
Elevation 654ft

KVYS Airport METARs

METAR KVYS 240955Z AUTO 20005KT 10SM CLR 09/07 A3001 RMK AO2 T00880072
Altimeter 30.01"
Temperature 8.8°C (47.8°F)
Wind 200° at 5KT
Clouds Skies are clear.
Visibility 10.0mi
Time observed: 2021-09-24T09:55:00Z

KVYS Airport Details

Status Operational
Activation November 1985
Ownership Public
Usage Public
Chart CHICAGO
ATC on-site No
Beacon schedule sunset-sunrise
Beacon color clear green

KVYS Airport Contacts

Owner CITY OF PERU
Owner address 1727 4TH STREET, PERU, IL 61354
Owner phone 815-223-8441
Manager KARL ZUERCHER
Manager address 221 NORTHEAST GLEN OAK AVE, PEORIA, IL 61636
Manager phone 309-672-5622

KVYS Airport (Illinois Valley Rgnl-Walter A Duncan Field) Radio Frequencies

KVYS (Airport) Radio Frequencies

UNICOM 123
Common traffic advisory frequency (CTAF) 123